Time;durP1;ratioP1;P1;durP2;ratioP2;P2;SDS_P1;SDS_P2;PMS_P1;PMS_P2;Temp;Humidity;BMP_temperature;BMP_pressure;BME280_temperature;BME280_humidity;BME280_pressure;Samples;Min_cycle;Max_cycle;Signal;HPM_P1;HPM_P2
2022/07/21 00:00:24;;;;;;;10.82;5.55;;;;;;;17.26;100.00;100213.70;1743953;81;21085;-74
2022/07/21 00:02:51;;;;;;;7.17;5.33;;;;;;;17.22;100.00;100217.00;1742008;81;21032;-74
2022/07/21 00:05:19;;;;;;;8.03;5.55;;;;;;;17.20;100.00;100211.91;1738806;81;21026;-75
2022/07/21 00:07:49;;;;;;;7.17;5.55;;;;;;;17.11;100.00;100211.77;1719722;82;21031;-74
2022/07/21 00:10:17;;;;;;;9.35;5.12;;;;;;;17.10;100.00;100210.95;1740405;82;21515;-74
2022/07/21 00:12:45;;;;;;;12.70;5.53;;;;;;;16.91;100.00;100213.28;1739221;82;20999;-74
2022/07/21 00:15:16;;;;;;;7.75;5.22;;;;;;;16.87;100.00;100204.91;1738754;81;21066;-74
2022/07/21 00:17:43;;;;;;;7.35;5.33;;;;;;;16.77;100.00;100210.41;1739837;82;21079;-73
2022/07/21 00:20:13;;;;;;;6.62;5.12;;;;;;;16.85;100.00;100202.89;1739891;81;21133;-74
2022/07/21 00:22:41;;;;;;;8.35;5.72;;;;;;;17.05;100.00;100204.44;1743381;81;21023;-74
2022/07/21 00:25:10;;;;;;;7.05;6.15;;;;;;;17.07;100.00;100203.85;1738269;81;21035;-74
2022/07/21 00:27:39;;;;;;;8.78;6.08;;;;;;;17.04;100.00;100206.22;1717908;82;21038;-74
2022/07/21 00:30:09;;;;;;;7.95;5.53;;;;;;;16.91;100.00;100201.12;1740829;82;21027;-74
2022/07/21 00:32:37;;;;;;;8.65;5.65;;;;;;;16.95;100.00;100201.25;1737817;82;21022;-74
2022/07/21 00:35:07;;;;;;;6.85;5.47;;;;;;;16.71;100.00;100197.88;1744487;81;21117;-74
2022/07/21 00:37:34;;;;;;;7.33;5.60;;;;;;;16.66;100.00;100193.00;1718014;82;21003;-75
2022/07/21 00:40:04;;;;;;;9.95;5.60;;;;;;;16.62;100.00;100188.48;1735767;82;21035;-75
2022/07/21 00:42:32;;;;;;;7.80;5.50;;;;;;;16.35;100.00;100185.36;1739930;81;21035;-74
2022/07/21 00:45:04;;;;;;;9.88;5.92;;;;;;;16.31;100.00;100177.44;1735425;82;21038;-75
2022/07/21 00:47:33;;;;;;;9.33;6.08;;;;;;;16.37;100.00;100174.38;1737537;82;21564;-74
2022/07/21 00:50:04;;;;;;;8.88;5.10;;;;;;;16.34;100.00;100175.45;1739431;82;21046;-75
2022/07/21 00:52:31;;;;;;;7.87;5.80;;;;;;;16.39;100.00;100173.32;1737480;82;21078;-75
2022/07/21 00:54:59;;;;;;;9.68;5.90;;;;;;;16.38;100.00;100174.27;1745358;82;21059;-75
2022/07/21 00:57:26;;;;;;;8.68;5.60;;;;;;;16.31;100.00;100175.66;1746464;81;21030;-75
2022/07/21 00:59:53;;;;;;;8.88;5.65;;;;;;;16.27;100.00;100178.59;1739890;82;20975;-75
2022/07/21 01:02:21;;;;;;;7.85;5.50;;;;;;;16.17;100.00;100171.47;1743066;81;21004;-75
2022/07/21 01:04:48;;;;;;;8.85;5.85;;;;;;;16.14;100.00;100169.55;1737859;82;21034;-75
2022/07/21 01:07:16;;;;;;;9.20;5.65;;;;;;;16.02;100.00;100172.12;1743066;82;21027;-75
2022/07/21 01:09:43;;;;;;;6.87;5.62;;;;;;;15.95;100.00;100170.06;1738100;82;21011;-75
2022/07/21 01:12:10;;;;;;;10.03;5.83;;;;;;;15.98;100.00;100171.16;1749192;82;21053;-75
2022/07/21 01:14:38;;;;;;;11.18;5.53;;;;;;;15.95;100.00;100175.26;1744124;82;21058;-75
2022/07/21 01:17:05;;;;;;;11.03;6.20;;;;;;;15.90;100.00;100171.70;1737657;81;21003;-75
2022/07/21 01:19:35;;;;;;;11.43;5.95;;;;;;;15.87;100.00;100168.02;1740856;82;21074;-75
2022/07/21 01:22:03;;;;;;;8.90;5.45;;;;;;;15.97;100.00;100165.59;1736005;82;21036;-74
2022/07/21 01:24:31;;;;;;;7.37;5.95;;;;;;;15.92;100.00;100169.83;1741139;81;21081;-74
2022/07/21 01:27:00;;;;;;;10.18;5.90;;;;;;;15.93;100.00;100169.34;1738018;81;21035;-75
2022/07/21 01:29:28;;;;;;;8.30;6.25;;;;;;;15.90;100.00;100173.48;1740372;82;21046;-74
2022/07/21 01:31:56;;;;;;;9.13;5.87;;;;;;;15.89;100.00;100174.41;1747703;82;21075;-75
2022/07/21 01:34:23;;;;;;;8.23;6.28;;;;;;;15.98;100.00;100174.58;1738403;81;21609;-75
2022/07/21 01:36:51;;;;;;;8.85;6.72;;;;;;;16.07;100.00;100174.85;1741175;81;21558;-75
2022/07/21 01:42:04;;;;;;;11.48;7.25;;;;;;;16.01;100.00;100176.11;1747044;81;21023;-75
2022/07/21 01:44:32;;;;;;;8.85;6.85;;;;;;;15.97;100.00;100172.91;1739228;82;21506;-75
2022/07/21 01:46:59;;;;;;;9.53;6.78;;;;;;;15.98;100.00;100173.75;1745798;81;20998;-75
2022/07/21 01:49:28;;;;;;;8.53;6.60;;;;;;;15.94;100.00;100174.44;1737816;81;21467;-75
2022/07/21 01:51:55;;;;;;;7.67;6.42;;;;;;;15.95;100.00;100176.56;1742434;81;21047;-75
2022/07/21 01:54:23;;;;;;;8.35;6.33;;;;;;;15.93;100.00;100171.95;1743913;82;21023;-75
2022/07/21 01:56:51;;;;;;;10.72;6.55;;;;;;;15.86;100.00;100174.64;1750599;81;21058;-75
2022/07/21 01:59:19;;;;;;;9.95;5.75;;;;;;;15.83;100.00;100171.77;1748617;81;21108;-75
2022/07/21 02:01:47;;;;;;;8.50;5.87;;;;;;;15.80;100.00;100170.23;1749691;82;21074;-75
2022/07/21 02:04:16;;;;;;;10.88;6.62;;;;;;;15.66;100.00;100171.66;1740044;81;21023;-75
2022/07/21 02:06:45;;;;;;;9.63;6.12;;;;;;;15.43;100.00;100171.98;1746766;81;21085;-75
2022/07/21 02:09:12;;;;;;;8.78;5.97;;;;;;;15.30;100.00;100157.72;1742866;82;21022;-75
2022/07/21 02:11:40;;;;;;;9.78;5.62;;;;;;;15.26;100.00;100140.72;1739137;81;21136;-75
2022/07/21 02:14:07;;;;;;;8.28;5.72;;;;;;;15.18;100.00;100139.13;1741198;82;21082;-75
2022/07/21 02:16:35;;;;;;;9.68;5.75;;;;;;;15.21;100.00;100135.03;1740674;82;21039;-75
2022/07/21 02:19:03;;;;;;;8.03;5.40;;;;;;;15.22;100.00;100128.42;1749315;81;20998;-74
2022/07/21 02:21:31;;;;;;;8.08;5.40;;;;;;;15.26;100.00;100127.75;1745376;81;21089;-75
2022/07/21 02:23:58;;;;;;;10.58;5.33;;;;;;;15.30;100.00;100130.48;1738205;82;21042;-75
2022/07/21 02:26:25;;;;;;;8.33;5.20;;;;;;;15.15;100.00;100132.39;1743020;81;21101;-74
2022/07/21 02:28:53;;;;;;;6.15;5.45;;;;;;;15.29;100.00;100131.44;1740638;82;21026;-75
2022/07/21 02:31:20;;;;;;;7.97;5.05;;;;;;;15.24;100.00;100136.11;1752411;81;21050;-75
2022/07/21 02:33:47;;;;;;;12.30;5.60;;;;;;;15.29;100.00;100130.14;1748595;81;20975;-75
2022/07/21 02:36:14;;;;;;;7.87;5.37;;;;;;;15.27;100.00;100136.35;1745991;81;21026;-74
2022/07/21 02:38:41;;;;;;;7.47;5.22;;;;;;;15.25;100.00;100139.08;1738035;81;21498;-75
2022/07/21 02:41:08;;;;;;;9.78;5.30;;;;;;;15.24;100.00;100145.18;1740408;82;20983;-74
2022/07/21 02:43:36;;;;;;;6.65;5.05;;;;;;;15.18;100.00;100143.02;1748394;81;21093;-75
2022/07/21 02:46:03;;;;;;;6.72;4.85;;;;;;;15.15;100.00;100151.02;1742973;81;21054;-74
2022/07/21 02:48:31;;;;;;;8.20;5.40;;;;;;;15.21;100.00;100144.11;1738688;82;21031;-75
2022/07/21 02:50:58;;;;;;;6.80;5.60;;;;;;;15.09;100.00;100147.08;1750916;81;21076;-75
2022/07/21 02:53:25;;;;;;;9.63;5.40;;;;;;;15.10;100.00;100146.60;1753465;81;21045;-75
2022/07/21 02:55:52;;;;;;;12.37;5.42;;;;;;;15.06;100.00;100138.20;1753844;82;21070;-75
2022/07/21 02:58:26;;;;;;;7.47;5.12;;;;;;;15.08;100.00;100139.40;1753040;81;21082;-75
2022/07/21 03:01:00;;;;;;;8.85;5.80;;;;;;;15.10;100.00;100130.58;1753951;81;21042;-75
2022/07/21 03:03:31;;;;;;;8.38;5.62;;;;;;;15.17;100.00;100126.63;1753870;81;21549;-76
2022/07/21 03:05:59;;;;;;;9.95;5.78;;;;;;;15.27;100.00;100126.83;1751252;81;21027;-75
2022/07/21 03:08:29;;;;;;;8.53;5.70;;;;;;;15.30;100.00;100129.20;1745935;82;21518;-75
2022/07/21 03:10:56;;;;;;;8.03;5.25;;;;;;;15.34;100.00;100134.52;1745811;81;21059;-75
2022/07/21 03:13:24;;;;;;;6.60;5.50;;;;;;;15.33;100.00;100126.88;1748832;82;21070;-75
2022/07/21 03:15:53;;;;;;;5.62;5.03;;;;;;;15.38;100.00;100128.19;1749069;82;21058;-75
2022/07/21 03:18:21;;;;;;;8.20;5.20;;;;;;;15.46;100.00;100126.36;1735986;82;21075;-74
2022/07/21 03:20:48;;;;;;;10.35;5.35;;;;;;;15.48;100.00;100129.67;1741395;81;21004;-75
2022/07/21 03:23:16;;;;;;;8.05;5.03;;;;;;;15.52;100.00;100131.59;1744302;81;21510;-75
2022/07/21 03:25:44;;;;;;;13.30;4.92;;;;;;;15.54;100.00;100128.41;1743521;82;21074;-75
2022/07/21 03:28:11;;;;;;;9.78;5.45;;;;;;;15.55;100.00;100130.91;1740138;81;21125;-74
2022/07/21 03:30:39;;;;;;;8.73;5.10;;;;;;;15.62;100.00;100125.63;1751472;82;21030;-75
2022/07/21 03:33:06;;;;;;;7.37;4.70;;;;;;;15.65;100.00;100130.23;1753524;81;21092;-75
2022/07/21 03:35:35;;;;;;;6.58;4.50;;;;;;;15.80;100.00;100123.98;1743344;81;21581;-75
2022/07/21 03:38:04;;;;;;;7.00;4.50;;;;;;;15.81;100.00;100129.52;1741466;81;21503;-75
2022/07/21 03:40:35;;;;;;;5.75;4.37;;;;;;;15.86;100.00;100135.70;1743631;80;21026;-76
2022/07/21 03:43:05;;;;;;;5.92;4.25;;;;;;;15.82;100.00;100137.20;1744528;82;21062;-75
2022/07/21 03:45:35;;;;;;;9.30;4.40;;;;;;;15.91;100.00;100133.59;1741908;82;21066;-75
2022/07/21 03:48:06;;;;;;;10.20;4.90;;;;;;;15.91;100.00;100130.99;1745728;82;21022;-75
2022/07/21 03:50:37;;;;;;;6.12;4.50;;;;;;;16.07;100.00;100135.42;1748444;81;21057;-75
2022/07/21 03:53:04;;;;;;;8.20;4.35;;;;;;;16.08;100.00;100139.69;1747022;82;21010;-76
2022/07/21 03:55:33;;;;;;;8.48;4.40;;;;;;;16.11;100.00;100133.44;1749420;81;21093;-76
2022/07/21 03:58:04;;;;;;;5.35;4.37;;;;;;;16.17;100.00;100140.30;1754095;81;21132;-76
2022/07/21 04:00:40;;;;;;;5.67;3.80;;;;;;;16.30;100.00;100129.00;1753229;81;21062;-75
2022/07/21 04:03:08;;;;;;;5.20;3.92;;;;;;;16.23;100.00;100138.55;1751636;81;21057;-76
2022/07/21 04:05:38;;;;;;;5.50;3.90;;;;;;;16.26;100.00;100136.67;1741290;82;21055;-76
2022/07/21 04:08:07;;;;;;;7.42;3.45;;;;;;;16.33;100.00;100140.00;1747843;81;21578;-75
2022/07/21 04:10:37;;;;;;;6.55;4.20;;;;;;;16.35;100.00;100148.51;1750553;82;21071;-75
2022/07/21 04:13:10;;;;;;;5.47;3.40;;;;;;;16.41;100.00;100155.03;1743981;81;21538;-75
2022/07/21 04:15:38;;;;;;;4.72;3.80;;;;;;;16.41;100.00;100160.23;1743172;81;21562;-75
2022/07/21 04:18:06;;;;;;;7.12;3.37;;;;;;;16.43;100.00;100164.84;1741474;81;21034;-76
2022/07/21 04:20:34;;;;;;;3.67;3.33;;;;;;;16.44;100.00;100169.08;1756460;81;21014;-75
2022/07/21 04:23:02;;;;;;;4.33;3.42;;;;;;;16.57;100.00;100161.22;1751233;81;21042;-75
2022/07/21 04:25:29;;;;;;;5.50;3.40;;;;;;;16.59;100.00;100160.62;1737412;82;21019;-77
2022/07/21 04:27:58;;;;;;;12.37;3.22;;;;;;;16.60;100.00;100160.49;1738261;81;21027;-75
2022/07/21 04:30:26;;;;;;;6.67;3.47;;;;;;;16.62;100.00;100166.88;1739335;81;21035;-74
2022/07/21 04:32:53;;;;;;;4.87;3.10;;;;;;;16.64;100.00;100174.09;1739169;82;21018;-75
2022/07/21 04:35:22;;;;;;;6.33;3.12;;;;;;;16.67;100.00;100176.48;1740479;81;21527;-76
2022/07/21 04:37:50;;;;;;;4.78;3.15;;;;;;;16.71;100.00;100172.70;1744896;82;21002;-76
2022/07/21 04:40:17;;;;;;;5.00;3.67;;;;;;;16.85;100.00;100181.25;1743941;82;21535;-76
2022/07/21 04:42:46;;;;;;;5.70;3.22;;;;;;;16.92;100.00;100171.57;1744570;82;21042;-75
2022/07/21 04:45:15;;;;;;;6.28;3.20;;;;;;;16.91;100.00;100174.28;1738264;82;21024;-76
2022/07/21 04:47:50;;;;;;;4.12;3.10;;;;;;;17.10;100.00;100178.92;1742397;82;21712;-78
2022/07/21 04:50:19;;;;;;;7.58;3.60;;;;;;;17.08;100.00;100185.53;1743197;81;21030;-77
2022/07/21 04:52:47;;;;;;;6.22;3.10;;;;;;;17.14;100.00;100179.86;1750272;80;21065;-76
2022/07/21 04:55:14;;;;;;;3.80;3.30;;;;;;;17.14;100.00;100179.05;1748848;81;21070;-76
2022/07/21 04:57:49;;;;;;;3.80;3.10;;;;;;;17.20;100.00;100185.89;1751329;81;21022;-76
2022/07/21 05:00:23;;;;;;;6.72;3.05;;;;;;;17.24;100.00;100192.17;1749275;81;21049;-75
2022/07/21 05:02:52;;;;;;;5.28;2.83;;;;;;;17.28;100.00;100194.41;1754597;81;21018;-75
2022/07/21 05:05:23;;;;;;;4.08;3.02;;;;;;;17.37;100.00;100201.48;1748603;81;21034;-76
2022/07/21 05:07:52;;;;;;;8.75;3.12;;;;;;;17.47;100.00;100203.39;1730979;81;21036;-75
2022/07/21 05:10:21;;;;;;;6.30;3.33;;;;;;;17.60;100.00;100211.42;1744742;81;21102;-76
2022/07/21 05:12:48;;;;;;;7.67;2.98;;;;;;;17.79;100.00;100220.39;1739620;81;20992;-75
2022/07/21 05:15:15;;;;;;;3.87;2.87;;;;;;;17.96;100.00;100221.68;1741935;81;21052;-76
2022/07/21 05:17:42;;;;;;;7.05;3.05;;;;;;;17.97;100.00;100220.26;1735319;81;21063;-77
2022/07/21 05:20:11;;;;;;;5.40;2.90;;;;;;;18.10;100.00;100229.21;1727975;82;20980;-76
2022/07/21 05:22:39;;;;;;;5.62;2.85;;;;;;;18.20;100.00;100237.94;1743519;81;21024;-75
2022/07/21 05:25:07;;;;;;;7.65;2.95;;;;;;;18.18;100.00;100245.53;1733362;82;21043;-76
2022/07/21 05:27:34;;;;;;;8.18;2.90;;;;;;;18.24;100.00;100258.55;1731786;81;21519;-77
2022/07/21 05:30:04;;;;;;;4.97;2.70;;;;;;;18.25;100.00;100260.19;1740847;81;21070;-78
2022/07/21 05:32:32;;;;;;;4.78;2.90;;;;;;;18.37;100.00;100264.42;1744082;81;21060;-75
2022/07/21 05:34:59;;;;;;;7.22;3.30;;;;;;;18.46;100.00;100263.69;1750097;81;21120;-79
2022/07/21 05:37:27;;;;;;;6.05;2.60;;;;;;;18.50;100.00;100272.91;1748621;81;21582;-77
2022/07/21 05:39:55;;;;;;;4.70;2.87;;;;;;;18.57;100.00;100264.95;1733132;81;21044;-77
2022/07/21 05:42:22;;;;;;;4.42;2.80;;;;;;;18.75;100.00;100264.38;1733723;82;21008;-76
2022/07/21 05:44:49;;;;;;;6.03;2.62;;;;;;;18.78;100.00;100272.78;1731698;82;21026;-78
2022/07/21 05:47:18;;;;;;;3.25;2.58;;;;;;;18.89;100.00;100276.32;1727980;81;21039;-78
2022/07/21 05:49:45;;;;;;;5.25;2.50;;;;;;;18.91;100.00;100284.36;1736131;81;21059;-79
2022/07/21 05:52:13;;;;;;;5.35;3.20;;;;;;;19.02;100.00;100282.19;1740112;81;20995;-78
2022/07/21 05:54:41;;;;;;;4.67;2.50;;;;;;;19.13;100.00;100283.89;1732678;82;21084;-79
2022/07/21 05:57:08;;;;;;;6.00;2.70;;;;;;;19.27;100.00;100286.65;1735763;82;21122;-77
2022/07/21 05:59:36;;;;;;;4.62;2.67;;;;;;;19.44;100.00;100283.91;1741115;81;21008;-80
2022/07/21 06:02:03;;;;;;;3.87;2.67;;;;;;;19.45;100.00;100292.92;1740463;82;21029;-79
2022/07/21 06:04:30;;;;;;;6.55;2.77;;;;;;;19.48;100.00;100292.64;1738253;82;21024;-80
2022/07/21 06:06:57;;;;;;;4.30;2.58;;;;;;;19.60;100.00;100301.22;1729158;82;20988;-78
2022/07/21 06:09:25;;;;;;;10.63;2.70;;;;;;;19.65;100.00;100299.06;1740221;82;21024;-77
2022/07/21 06:11:54;;;;;;;4.90;2.47;;;;;;;19.65;100.00;100303.44;1731871;82;21046;-78
2022/07/21 06:14:23;;;;;;;7.95;2.65;;;;;;;19.74;100.00;100301.38;1732700;82;21040;-78
2022/07/21 06:16:50;;;;;;;3.22;2.10;;;;;;;19.89;100.00;100305.30;1728667;82;21052;-79
2022/07/21 06:19:18;;;;;;;7.80;2.45;;;;;;;19.91;100.00;100306.45;1711320;82;21028;-77
2022/07/21 06:21:45;;;;;;;5.95;2.10;;;;;;;19.93;100.00;100312.37;1731244;82;21076;-77
2022/07/21 06:24:14;;;;;;;3.77;2.17;;;;;;;19.96;100.00;100318.16;1730840;82;21055;-78
2022/07/21 06:26:42;;;;;;;5.83;1.90;;;;;;;20.18;100.00;100311.08;1740897;82;21036;-78
2022/07/21 06:29:09;;;;;;;4.72;2.10;;;;;;;20.20;100.00;100319.61;1721617;82;21026;-78
2022/07/21 06:31:38;;;;;;;6.65;2.10;;;;;;;20.33;100.00;100328.49;1741876;82;21076;-79
2022/07/21 06:34:07;;;;;;;5.90;1.80;;;;;;;20.38;100.00;100331.05;1746878;81;21063;-79
2022/07/21 06:36:34;;;;;;;7.75;2.12;;;;;;;20.49;100.00;100331.41;1747432;81;22135;-79
2022/07/21 06:39:02;;;;;;;4.67;1.75;;;;;;;20.55;100.00;100347.03;1749062;81;21624;-77
2022/07/21 06:41:30;;;;;;;4.95;1.72;;;;;;;20.60;100.00;100333.11;1748079;81;21031;-76
2022/07/21 06:43:57;;;;;;;5.72;1.95;;;;;;;20.95;100.00;100338.27;1749787;81;21015;-76
2022/07/21 06:46:26;;;;;;;2.92;1.90;;;;;;;21.05;100.00;100336.95;1749912;81;21006;-78
2022/07/21 06:48:53;;;;;;;2.90;1.60;;;;;;;21.04;100.00;100339.22;1752007;81;21050;-78
2022/07/21 06:51:20;;;;;;;2.10;1.52;;;;;;;21.13;100.00;100335.77;1755793;81;21066;-77
2022/07/21 06:53:46;;;;;;;2.22;1.62;;;;;;;21.24;100.00;100326.92;1738261;81;21094;-78
2022/07/21 06:56:14;;;;;;;7.53;1.95;;;;;;;21.31;100.00;100326.23;1743738;81;21050;-75
2022/07/21 06:58:41;;;;;;;5.55;1.70;;;;;;;21.53;100.00;100325.55;1746087;81;21037;-79
2022/07/21 07:01:09;;;;;;;4.65;1.70;;;;;;;21.64;100.00;100325.39;1732031;81;21035;-77
2022/07/21 07:03:38;;;;;;;3.45;1.60;;;;;;;21.91;100.00;100325.88;1726112;81;21019;-76
2022/07/21 07:06:06;;;;;;;3.08;1.50;;;;;;;22.12;100.00;100325.66;1739807;81;21031;-77
2022/07/21 07:08:33;;;;;;;6.87;1.92;;;;;;;22.10;100.00;100331.53;1732576;82;20992;-79
2022/07/21 07:11:00;;;;;;;4.62;1.60;;;;;;;22.17;100.00;100318.64;1747136;81;21059;-75
2022/07/21 07:13:28;;;;;;;4.95;1.77;;;;;;;22.05;100.00;100330.31;1751127;81;21609;-79
2022/07/21 07:15:56;;;;;;;4.55;1.65;;;;;;;21.91;100.00;100342.91;1754698;81;21054;-78
2022/07/21 07:18:25;;;;;;;5.45;1.60;;;;;;;21.90;100.00;100328.67;1748862;81;21070;-77
2022/07/21 07:20:52;;;;;;;4.12;1.70;;;;;;;22.04;100.00;100319.47;1746008;82;21083;-77
2022/07/21 07:23:19;;;;;;;4.67;1.75;;;;;;;22.25;100.00;100319.26;1747274;81;21027;-77
2022/07/21 07:25:46;;;;;;;2.50;1.62;;;;;;;22.48;100.00;100315.20;1751347;81;21007;-75
2022/07/21 07:28:14;;;;;;;3.83;1.60;;;;;;;22.80;100.00;100323.04;1749899;81;21082;-77
2022/07/21 07:30:42;;;;;;;5.72;1.77;;;;;;;22.70;100.00;100320.49;1748858;82;21030;-82
2022/07/21 07:33:09;;;;;;;3.85;1.62;;;;;;;22.77;100.00;100317.61;1749746;81;21519;-79
2022/07/21 07:35:38;;;;;;;4.28;1.60;;;;;;;22.84;100.00;100321.77;1752454;81;21109;-79
2022/07/21 07:38:05;;;;;;;2.85;1.40;;;;;;;22.97;100.00;100316.95;1722964;82;21039;-82
2022/07/21 07:40:32;;;;;;;4.10;1.95;;;;;;;22.81;95.03;100315.52;1747956;81;21080;-80
2022/07/21 07:42:59;;;;;;;5.55;1.42;;;;;;;22.88;94.34;100311.30;1723409;80;21014;-79
2022/07/21 07:45:27;;;;;;;8.75;1.67;;;;;;;22.94;92.19;100314.62;1751306;81;21063;-79
2022/07/21 07:47:54;;;;;;;5.20;1.40;;;;;;;23.11;92.26;100310.83;1751680;80;21059;-80
2022/07/21 07:50:22;;;;;;;6.00;1.30;;;;;;;23.13;89.41;100329.38;1751309;81;21028;-80
2022/07/21 07:52:49;;;;;;;3.00;1.10;;;;;;;22.95;87.06;100319.38;1745542;81;21539;-80
2022/07/21 07:55:17;;;;;;;5.55;1.40;;;;;;;22.99;85.29;100320.72;1756626;80;21019;-77
2022/07/21 07:57:45;;;;;;;3.47;1.30;;;;;;;23.32;87.31;100315.23;1756535;80;21051;-80
2022/07/21 08:00:16;;;;;;;8.88;1.30;;;;;;;23.01;84.79;100325.33;1755791;81;21048;-81
2022/07/21 08:02:45;;;;;;;4.22;1.30;;;;;;;23.19;83.75;100317.44;1765051;81;21086;-81
2022/07/21 08:05:13;;;;;;;4.53;1.47;;;;;;;23.17;81.21;100321.53;1764039;81;21003;-79
2022/07/21 08:07:40;;;;;;;5.08;1.32;;;;;;;23.62;81.92;100318.83;1761543;81;21027;-81
2022/07/21 08:10:12;;;;;;;4.30;1.50;;;;;;;23.64;76.92;100317.72;1755828;80;21066;-81
2022/07/21 08:12:40;;;;;;;3.95;1.30;;;;;;;23.75;77.15;100333.19;1761768;81;21024;-80
2022/07/21 08:15:08;;;;;;;4.12;1.30;;;;;;;23.75;77.20;100312.16;1765639;80;21054;-81
2022/07/21 08:17:35;;;;;;;5.37;1.32;;;;;;;23.89;79.79;100321.78;1751375;80;21015;-79
2022/07/21 08:20:04;;;;;;;4.40;1.35;;;;;;;23.82;81.00;100311.56;1753694;80;21542;-81
2022/07/21 08:22:32;;;;;;;5.17;1.20;;;;;;;24.13;82.12;100320.55;1760851;80;21547;-79
2022/07/21 08:24:59;;;;;;;2.85;1.15;;;;;;;23.84;75.21;100316.98;1751045;81;21474;-79
2022/07/21 08:27:26;;;;;;;7.03;1.15;;;;;;;23.78;75.29;100315.84;1765240;81;21067;-82
2022/07/21 08:29:53;;;;;;;3.42;1.07;;;;;;;23.61;74.72;100319.33;1758603;81;21085;-81
2022/07/21 08:32:21;;;;;;;5.37;1.20;;;;;;;23.53;76.75;100311.41;1756403;81;21094;-80
2022/07/21 08:34:48;;;;;;;3.87;1.30;;;;;;;23.72;76.44;100302.45;1758806;81;21119;-78
2022/07/21 08:37:17;;;;;;;3.87;1.20;;;;;;;23.78;75.55;100299.22;1752716;81;21050;-80
2022/07/21 08:39:44;;;;;;;4.50;1.50;;;;;;;24.12;75.97;100297.03;1730045;81;21082;-80
2022/07/21 08:42:13;;;;;;;4.00;1.20;;;;;;;23.99;74.26;100295.69;1761116;81;21027;-82
2022/07/21 08:44:40;;;;;;;4.28;1.60;;;;;;;24.28;75.77;100304.14;1727492;81;21472;-79
2022/07/21 08:47:08;;;;;;;4.65;1.72;;;;;;;24.12;78.81;100294.40;1767127;81;22234;-80
2022/07/21 08:49:37;;;;;;;2.42;1.60;;;;;;;24.37;78.82;100301.36;1771860;80;21047;-80
2022/07/21 08:52:07;;;;;;;4.47;1.60;;;;;;;24.62;77.22;100309.80;1756326;81;21066;-78
2022/07/21 08:54:34;;;;;;;5.10;1.50;;;;;;;24.38;75.03;100295.59;1760727;81;21023;-78
2022/07/21 08:57:01;;;;;;;3.70;1.40;;;;;;;24.65;75.24;100284.45;1764838;81;21044;-82
2022/07/21 08:59:29;;;;;;;6.83;1.30;;;;;;;24.65;75.24;100284.45;1765153;81;21031;-79
2022/07/21 09:01:56;;;;;;;3.15;1.40;;;;;;;24.72;74.93;100294.67;1767401;81;21055;-81
2022/07/21 09:04:30;;;;;;;3.25;1.27;;;;;;;24.23;72.53;100299.37;1769564;81;21036;-77
2022/07/21 09:07:02;;;;;;;4.17;1.95;;;;;;;24.54;74.65;100289.56;1766642;80;21097;-78
2022/07/21 09:09:34;;;;;;;5.03;1.77;;;;;;;24.67;74.41;100282.48;1759821;80;21034;-78
2022/07/21 09:12:03;;;;;;;3.80;1.65;;;;;;;24.67;74.41;100282.48;1763374;80;21585;-82
2022/07/21 09:14:33;;;;;;;7.00;1.47;;;;;;;24.84;72.59;100281.50;1761838;81;21075;-80
2022/07/21 09:17:04;;;;;;;3.20;1.30;;;;;;;25.26;73.01;100284.89;1756070;80;20996;-79
2022/07/21 09:19:44;;;;;;;3.90;1.25;;;;;;;25.41;71.13;100278.45;1756747;80;21032;-80
2022/07/21 09:22:18;;;;;;;8.88;1.52;;;;;;;25.17;70.21;100291.97;1752341;80;21018;-78
2022/07/21 09:24:52;;;;;;;5.37;1.45;;;;;;;25.05;70.43;100294.63;1751804;80;21003;-79
2022/07/21 09:27:25;;;;;;;2.15;1.40;;;;;;;24.94;69.97;100294.46;1755436;79;21499;-80
2022/07/21 09:29:59;;;;;;;6.87;1.32;;;;;;;24.99;70.80;100285.58;1766462;79;21052;-79
2022/07/21 09:32:36;;;;;;;3.40;1.10;;;;;;;24.57;67.92;100291.85;1759217;81;20991;-81
2022/07/21 09:35:10;;;;;;;3.67;1.22;;;;;;;24.69;66.80;100299.75;1755840;81;21155;-80
2022/07/21 09:37:38;;;;;;;4.28;1.50;;;;;;;24.86;66.34;100296.63;1748892;81;21051;-80
2022/07/21 09:40:13;;;;;;;3.52;1.20;;;;;;;25.10;66.75;100285.25;1761343;80;21091;-79
2022/07/21 09:42:50;;;;;;;5.53;1.30;;;;;;;25.24;66.61;100282.92;1752780;81;21486;-79
2022/07/21 09:45:19;;;;;;;3.77;1.37;;;;;;;25.10;66.85;100291.83;1724466;80;21071;-82
2022/07/21 09:47:47;;;;;;;3.65;1.15;;;;;;;25.04;66.78;100287.23;1758906;81;21032;-81
2022/07/21 09:50:16;;;;;;;2.55;1.17;;;;;;;24.76;67.75;100300.75;1757422;80;21573;-77
2022/07/21 09:52:46;;;;;;;4.83;1.30;;;;;;;24.84;66.75;100285.45;1755749;81;21007;-79
2022/07/21 09:55:16;;;;;;;4.87;1.30;;;;;;;24.77;67.54;100289.72;1754025;81;21026;-80
2022/07/21 09:57:44;;;;;;;4.42;1.27;;;;;;;24.87;68.16;100289.55;1770689;81;21135;-78
2022/07/21 10:00:17;;;;;;;5.17;1.30;;;;;;;24.64;68.19;100278.88;1760946;80;21113;-79
2022/07/21 10:02:45;;;;;;;3.95;1.60;;;;;;;24.93;69.01;100283.11;1765951;81;21150;-77
2022/07/21 10:05:17;;;;;;;2.37;1.50;;;;;;;25.09;68.89;100275.69;1760888;80;20992;-81
2022/07/21 10:07:48;;;;;;;4.75;1.45;;;;;;;25.41;68.40;100267.91;1765032;80;20995;-80
2022/07/21 10:10:17;;;;;;;5.58;1.50;;;;;;;25.40;71.71;100263.11;1755556;81;21594;-78
2022/07/21 10:12:47;;;;;;;2.85;1.50;;;;;;;25.41;69.68;100258.18;1745172;80;21032;-78
2022/07/21 10:15:15;;;;;;;3.65;1.40;;;;;;;25.42;71.24;100261.13;1765974;80;21047;-78
2022/07/21 10:17:48;;;;;;;6.62;1.40;;;;;;;25.07;70.93;100256.59;1771001;80;21046;-80
2022/07/21 10:20:32;;;;;;;3.55;1.52;;;;;;;25.32;73.45;100260.50;1774132;80;20997;-78
2022/07/21 10:23:32;;;;;;;3.75;1.50;;;;;;;25.53;70.77;100252.86;1771776;80;21063;-78
2022/07/21 10:26:02;;;;;;;2.87;1.30;;;;;;;25.75;70.66;100260.50;1691152;83;21102;-80
2022/07/21 10:28:29;;;;;;;3.50;1.35;;;;;;;25.82;70.28;100280.91;1757235;80;21028;-77
2022/07/21 10:30:59;;;;;;;2.87;1.30;;;;;;;25.39;70.50;100254.89;1746157;81;20992;-81
2022/07/21 10:33:48;;;;;;;3.60;1.47;;;;;;;25.62;70.85;100254.14;1755713;81;21027;-82
2022/07/21 10:36:37;;;;;;;6.72;1.47;;;;;;;25.87;70.43;100241.16;1764191;81;21072;-79
2022/07/21 10:39:15;;;;;;;4.67;1.20;;;;;;;25.92;69.75;100250.70;1766309;81;21078;-79
2022/07/21 10:41:50;;;;;;;4.10;1.30;;;;;;;25.55;69.40;100249.55;1768264;80;21567;-82
2022/07/21 10:44:34;;;;;;;4.00;1.27;;;;;;;25.47;71.01;100242.19;1770929;80;21030;-79
2022/07/21 10:47:30;;;;;;;4.72;1.30;;;;;;;25.20;71.97;100253.42;1763150;80;21079;-78
2022/07/21 10:50:07;;;;;;;3.00;1.37;;;;;;;25.22;71.59;100251.47;1768326;80;21080;-78
2022/07/21 10:52:49;;;;;;;6.85;1.65;;;;;;;25.47;70.02;100249.59;1770351;80;21564;-78
2022/07/21 10:55:28;;;;;;;2.55;1.50;;;;;;;25.38;71.61;100246.17;1771719;80;21020;-77
2022/07/21 10:58:27;;;;;;;10.13;1.70;;;;;;;25.46;72.87;100240.03;1764053;81;21067;-81
2022/07/21 11:01:02;;;;;;;2.95;1.30;;;;;;;25.39;74.17;100237.27;1757938;80;21046;-77
2022/07/21 11:03:33;;;;;;;3.85;1.42;;;;;;;25.30;71.61;100247.49;1756647;80;21039;-78
2022/07/21 11:06:24;;;;;;;3.20;1.20;;;;;;;25.25;69.83;100243.25;1757068;80;21467;-78
2022/07/21 11:09:08;;;;;;;6.03;1.40;;;;;;;25.16;70.80;100242.43;1736651;81;21514;-78
2022/07/21 11:11:49;;;;;;;5.05;1.60;;;;;;;25.39;71.22;100247.80;1755989;81;21045;-79
2022/07/21 11:14:20;;;;;;;7.00;1.27;;;;;;;25.63;70.47;100246.06;1748719;81;20992;-81
2022/07/21 11:16:58;;;;;;;3.10;1.40;;;;;;;26.04;72.42;100237.95;1765747;81;21028;-77
2022/07/21 11:19:45;;;;;;;6.42;1.45;;;;;;;25.93;70.25;100231.74;1764026;81;21114;-76
2022/07/21 11:22:21;;;;;;;4.45;1.42;;;;;;;25.62;71.78;100239.64;1763874;81;21031;-79
2022/07/21 11:24:53;;;;;;;3.58;1.75;;;;;;;25.64;70.71;100249.52;1756886;81;21113;-79
2022/07/21 11:27:23;;;;;;;;;;;;;;;25.97;70.44;100230.39;1761414;81;21026;-80
2022/07/21 11:29:56;;;;;;;5.10;1.50;;;;;;;25.56;69.41;100243.78;1752320;81;20140;-80
2022/07/21 11:32:24;;;;;;;3.73;1.40;;;;;;;25.89;69.99;100234.38;1766022;81;21028;-81